sensor_id;sensor_type;location;lat;lon;timestamp;P1;durP1;ratioP1;P2;durP2;ratioP2
9117;SDS011;4594;50.994;7.126;2023-03-31T00:01:35;2.93;;;2.00;;
9117;SDS011;4594;50.994;7.126;2023-03-31T00:04:08;2.47;;;1.60;;
9117;SDS011;4594;50.994;7.126;2023-03-31T00:06:37;2.23;;;2.03;;
9117;SDS011;4594;50.994;7.126;2023-03-31T00:09:10;1.93;;;1.83;;
9117;SDS011;4594;50.994;7.126;2023-03-31T00:11:39;2.83;;;1.90;;
9117;SDS011;4594;50.994;7.126;2023-03-31T00:14:05;1.97;;;1.87;;
9117;SDS011;4594;50.994;7.126;2023-03-31T00:16:33;2.10;;;1.90;;
9117;SDS011;4594;50.994;7.126;2023-03-31T00:19:01;1.87;;;1.77;;
9117;SDS011;4594;50.994;7.126;2023-03-31T00:21:28;3.60;;;1.90;;
9117;SDS011;4594;50.994;7.126;2023-03-31T00:24:08;3.27;;;2.03;;
9117;SDS011;4594;50.994;7.126;2023-03-31T00:26:36;3.20;;;2.30;;
9117;SDS011;4594;50.994;7.126;2023-03-31T00:29:04;3.27;;;2.00;;
9117;SDS011;4594;50.994;7.126;2023-03-31T00:31:32;2.00;;;1.80;;
9117;SDS011;4594;50.994;7.126;2023-03-31T00:33:59;2.13;;;1.90;;
9117;SDS011;4594;50.994;7.126;2023-03-31T00:36:26;2.60;;;1.90;;
9117;SDS011;4594;50.994;7.126;2023-03-31T00:38:56;1.93;;;1.63;;
9117;SDS011;4594;50.994;7.126;2023-03-31T00:41:34;2.73;;;2.33;;
9117;SDS011;4594;50.994;7.126;2023-03-31T00:49:27;2.40;;;2.10;;
9117;SDS011;4594;50.994;7.126;2023-03-31T00:51:59;3.80;;;2.20;;
9117;SDS011;4594;50.994;7.126;2023-03-31T00:54:37;3.40;;;2.10;;
9117;SDS011;4594;50.994;7.126;2023-03-31T00:57:06;4.07;;;2.07;;
9117;SDS011;4594;50.994;7.126;2023-03-31T00:59:38;2.33;;;2.10;;
9117;SDS011;4594;50.994;7.126;2023-03-31T01:02:10;2.40;;;1.83;;
9117;SDS011;4594;50.994;7.126;2023-03-31T01:04:40;3.00;;;1.87;;
9117;SDS011;4594;50.994;7.126;2023-03-31T01:07:17;4.00;;;1.90;;
9117;SDS011;4594;50.994;7.126;2023-03-31T01:09:56;2.23;;;1.83;;
9117;SDS011;4594;50.994;7.126;2023-03-31T01:12:25;2.37;;;2.27;;
9117;SDS011;4594;50.994;7.126;2023-03-31T01:14:51;3.83;;;2.20;;
9117;SDS011;4594;50.994;7.126;2023-03-31T01:17:19;3.23;;;2.10;;
9117;SDS011;4594;50.994;7.126;2023-03-31T01:19:50;3.70;;;2.00;;
9117;SDS011;4594;50.994;7.126;2023-03-31T01:28:52;3.30;;;1.93;;
9117;SDS011;4594;50.994;7.126;2023-03-31T01:43:57;3.27;;;1.90;;
9117;SDS011;4594;50.994;7.126;2023-03-31T01:46:40;5.53;;;1.97;;
9117;SDS011;4594;50.994;7.126;2023-03-31T01:49:33;2.87;;;1.90;;
9117;SDS011;4594;50.994;7.126;2023-03-31T01:52:10;2.27;;;2.07;;
9117;SDS011;4594;50.994;7.126;2023-03-31T01:55:24;1.90;;;1.77;;
9117;SDS011;4594;50.994;7.126;2023-03-31T01:58:22;1.70;;;1.60;;
9117;SDS011;4594;50.994;7.126;2023-03-31T02:01:00;3.33;;;1.73;;
9117;SDS011;4594;50.994;7.126;2023-03-31T02:03:36;5.90;;;1.87;;
9117;SDS011;4594;50.994;7.126;2023-03-31T02:06:16;4.60;;;1.70;;
9117;SDS011;4594;50.994;7.126;2023-03-31T02:09:02;2.37;;;2.00;;
9117;SDS011;4594;50.994;7.126;2023-03-31T02:11:39;3.00;;;1.80;;
9117;SDS011;4594;50.994;7.126;2023-03-31T02:14:09;1.87;;;1.77;;
9117;SDS011;4594;50.994;7.126;2023-03-31T02:16:42;2.07;;;1.97;;
9117;SDS011;4594;50.994;7.126;2023-03-31T02:19:15;3.97;;;1.90;;
9117;SDS011;4594;50.994;7.126;2023-03-31T02:21:45;3.47;;;1.93;;
9117;SDS011;4594;50.994;7.126;2023-03-31T02:24:13;2.20;;;2.10;;
9117;SDS011;4594;50.994;7.126;2023-03-31T02:26:48;4.87;;;2.20;;
9117;SDS011;4594;50.994;7.126;2023-03-31T02:29:25;6.17;;;2.40;;
9117;SDS011;4594;50.994;7.126;2023-03-31T02:34:25;2.07;;;1.97;;
9117;SDS011;4594;50.994;7.126;2023-03-31T02:36:51;3.93;;;2.27;;
9117;SDS011;4594;50.994;7.126;2023-03-31T02:39:18;3.30;;;1.80;;
9117;SDS011;4594;50.994;7.126;2023-03-31T02:41:51;2.50;;;2.10;;
9117;SDS011;4594;50.994;7.126;2023-03-31T02:44:17;3.10;;;1.90;;
9117;SDS011;4594;50.994;7.126;2023-03-31T02:46:43;5.50;;;2.33;;
9117;SDS011;4594;50.994;7.126;2023-03-31T02:49:10;3.90;;;2.20;;
9117;SDS011;4594;50.994;7.126;2023-03-31T02:57:52;6.50;;;2.20;;
9117;SDS011;4594;50.994;7.126;2023-03-31T03:01:04;4.50;;;2.43;;
9117;SDS011;4594;50.994;7.126;2023-03-31T03:12:32;2.93;;;2.00;;
9117;SDS011;4594;50.994;7.126;2023-03-31T03:15:09;4.77;;;2.50;;
9117;SDS011;4594;50.994;7.126;2023-03-31T03:17:46;4.43;;;2.47;;
9117;SDS011;4594;50.994;7.126;2023-03-31T03:20:14;2.37;;;2.27;;
9117;SDS011;4594;50.994;7.126;2023-03-31T03:22:44;2.53;;;2.17;;
9117;SDS011;4594;50.994;7.126;2023-03-31T03:25:11;2.97;;;2.20;;
9117;SDS011;4594;50.994;7.126;2023-03-31T03:27:41;9.07;;;2.50;;
9117;SDS011;4594;50.994;7.126;2023-03-31T03:30:08;2.87;;;2.10;;
9117;SDS011;4594;50.994;7.126;2023-03-31T03:32:37;5.57;;;3.00;;
9117;SDS011;4594;50.994;7.126;2023-03-31T03:35:03;4.77;;;2.17;;
9117;SDS011;4594;50.994;7.126;2023-03-31T03:37:30;5.13;;;2.17;;
9117;SDS011;4594;50.994;7.126;2023-03-31T03:39:57;3.37;;;2.27;;
9117;SDS011;4594;50.994;7.126;2023-03-31T03:42:23;4.50;;;2.40;;
9117;SDS011;4594;50.994;7.126;2023-03-31T03:44:48;4.47;;;2.60;;
9117;SDS011;4594;50.994;7.126;2023-03-31T03:47:14;4.80;;;2.50;;
9117;SDS011;4594;50.994;7.126;2023-03-31T03:49:40;5.00;;;2.03;;
9117;SDS011;4594;50.994;7.126;2023-03-31T03:52:06;5.70;;;2.47;;
9117;SDS011;4594;50.994;7.126;2023-03-31T03:54:32;5.07;;;2.30;;
9117;SDS011;4594;50.994;7.126;2023-03-31T03:56:58;3.57;;;2.53;;
9117;SDS011;4594;50.994;7.126;2023-03-31T03:59:23;2.90;;;2.30;;
9117;SDS011;4594;50.994;7.126;2023-03-31T04:01:49;6.03;;;2.57;;
9117;SDS011;4594;50.994;7.126;2023-03-31T04:04:16;6.47;;;2.57;;
9117;SDS011;4594;50.994;7.126;2023-03-31T04:06:42;3.47;;;2.23;;
9117;SDS011;4594;50.994;7.126;2023-03-31T04:09:08;6.93;;;2.50;;
9117;SDS011;4594;50.994;7.126;2023-03-31T04:11:34;5.87;;;2.40;;
9117;SDS011;4594;50.994;7.126;2023-03-31T04:14:00;3.30;;;2.27;;
9117;SDS011;4594;50.994;7.126;2023-03-31T04:16:26;7.30;;;2.43;;
9117;SDS011;4594;50.994;7.126;2023-03-31T04:18:52;5.30;;;2.40;;
9117;SDS011;4594;50.994;7.126;2023-03-31T04:21:20;4.30;;;2.20;;
9117;SDS011;4594;50.994;7.126;2023-03-31T04:23:52;3.20;;;2.20;;
9117;SDS011;4594;50.994;7.126;2023-03-31T04:26:31;4.30;;;2.30;;
9117;SDS011;4594;50.994;7.126;2023-03-31T04:29:08;6.90;;;2.17;;
9117;SDS011;4594;50.994;7.126;2023-03-31T04:31:40;4.83;;;2.40;;
9117;SDS011;4594;50.994;7.126;2023-03-31T04:34:09;2.17;;;2.00;;
9117;SDS011;4594;50.994;7.126;2023-03-31T04:36:42;4.97;;;2.27;;
9117;SDS011;4594;50.994;7.126;2023-03-31T04:39:11;2.50;;;2.30;;
9117;SDS011;4594;50.994;7.126;2023-03-31T04:41:41;4.60;;;2.60;;
9117;SDS011;4594;50.994;7.126;2023-03-31T04:44:07;5.50;;;2.30;;
9117;SDS011;4594;50.994;7.126;2023-03-31T04:46:33;2.70;;;1.93;;
9117;SDS011;4594;50.994;7.126;2023-03-31T04:49:00;4.27;;;2.00;;
9117;SDS011;4594;50.994;7.126;2023-03-31T04:51:26;5.37;;;2.30;;
9117;SDS011;4594;50.994;7.126;2023-03-31T04:53:53;3.00;;;1.97;;
9117;SDS011;4594;50.994;7.126;2023-03-31T04:56:19;4.77;;;2.57;;
9117;SDS011;4594;50.994;7.126;2023-03-31T04:58:44;2.00;;;1.90;;
9117;SDS011;4594;50.994;7.126;2023-03-31T05:01:10;3.53;;;2.13;;
9117;SDS011;4594;50.994;7.126;2023-03-31T05:03:42;2.53;;;2.23;;
9117;SDS011;4594;50.994;7.126;2023-03-31T05:06:09;2.30;;;2.03;;
9117;SDS011;4594;50.994;7.126;2023-03-31T05:08:35;2.27;;;2.10;;
9117;SDS011;4594;50.994;7.126;2023-03-31T05:11:01;2.57;;;2.40;;
9117;SDS011;4594;50.994;7.126;2023-03-31T05:13:28;6.57;;;2.47;;
9117;SDS011;4594;50.994;7.126;2023-03-31T05:15:54;4.93;;;2.10;;
9117;SDS011;4594;50.994;7.126;2023-03-31T05:18:20;1.93;;;1.77;;
9117;SDS011;4594;50.994;7.126;2023-03-31T05:20:45;4.60;;;2.10;;
9117;SDS011;4594;50.994;7.126;2023-03-31T05:23:12;1.87;;;1.77;;
9117;SDS011;4594;50.994;7.126;2023-03-31T05:25:38;3.00;;;1.70;;
9117;SDS011;4594;50.994;7.126;2023-03-31T05:28:06;3.73;;;2.00;;
9117;SDS011;4594;50.994;7.126;2023-03-31T05:30:33;2.13;;;1.93;;
9117;SDS011;4594;50.994;7.126;2023-03-31T05:33:00;2.67;;;2.17;;
9117;SDS011;4594;50.994;7.126;2023-03-31T05:35:26;6.93;;;2.27;;
9117;SDS011;4594;50.994;7.126;2023-03-31T05:37:51;4.83;;;2.07;;
9117;SDS011;4594;50.994;7.126;2023-03-31T05:40:17;3.30;;;2.23;;
9117;SDS011;4594;50.994;7.126;2023-03-31T05:42:43;2.17;;;1.83;;
9117;SDS011;4594;50.994;7.126;2023-03-31T05:45:08;2.20;;;1.73;;
9117;SDS011;4594;50.994;7.126;2023-03-31T05:47:34;2.17;;;1.93;;
9117;SDS011;4594;50.994;7.126;2023-03-31T05:50:00;1.70;;;1.60;;
9117;SDS011;4594;50.994;7.126;2023-03-31T05:52:31;2.00;;;1.73;;
9117;SDS011;4594;50.994;7.126;2023-03-31T05:54:57;3.27;;;2.00;;
9117;SDS011;4594;50.994;7.126;2023-03-31T05:57:23;1.90;;;1.73;;
9117;SDS011;4594;50.994;7.126;2023-03-31T05:59:48;3.30;;;2.03;;
9117;SDS011;4594;50.994;7.126;2023-03-31T06:02:14;2.60;;;2.00;;
9117;SDS011;4594;50.994;7.126;2023-03-31T06:04:40;1.60;;;1.60;;
9117;SDS011;4594;50.994;7.126;2023-03-31T06:07:07;2.30;;;1.73;;
9117;SDS011;4594;50.994;7.126;2023-03-31T06:09:34;2.20;;;1.70;;
9117;SDS011;4594;50.994;7.126;2023-03-31T06:11:59;2.00;;;1.90;;
9117;SDS011;4594;50.994;7.126;2023-03-31T06:14:26;2.33;;;2.00;;
9117;SDS011;4594;50.994;7.126;2023-03-31T06:16:52;2.03;;;1.93;;
9117;SDS011;4594;50.994;7.126;2023-03-31T06:19:18;1.90;;;1.67;;
9117;SDS011;4594;50.994;7.126;2023-03-31T06:21:43;3.70;;;2.13;;
9117;SDS011;4594;50.994;7.126;2023-03-31T06:24:10;1.80;;;1.80;;
9117;SDS011;4594;50.994;7.126;2023-03-31T06:26:35;4.03;;;2.10;;
9117;SDS011;4594;50.994;7.126;2023-03-31T06:29:01;2.13;;;2.03;;
9117;SDS011;4594;50.994;7.126;2023-03-31T06:31:27;3.40;;;2.10;;
9117;SDS011;4594;50.994;7.126;2023-03-31T06:33:53;2.40;;;2.07;;
9117;SDS011;4594;50.994;7.126;2023-03-31T06:36:19;2.20;;;2.00;;
9117;SDS011;4594;50.994;7.126;2023-03-31T06:38:47;1.80;;;1.70;;
9117;SDS011;4594;50.994;7.126;2023-03-31T06:41:14;1.67;;;1.60;;
9117;SDS011;4594;50.994;7.126;2023-03-31T06:43:42;1.80;;;1.80;;
9117;SDS011;4594;50.994;7.126;2023-03-31T06:46:08;1.57;;;1.57;;
9117;SDS011;4594;50.994;7.126;2023-03-31T06:48:34;1.63;;;1.63;;
9117;SDS011;4594;50.994;7.126;2023-03-31T06:51:00;1.77;;;1.67;;
9117;SDS011;4594;50.994;7.126;2023-03-31T06:53:29;2.10;;;1.80;;
9117;SDS011;4594;50.994;7.126;2023-03-31T06:55:55;1.83;;;1.73;;
9117;SDS011;4594;50.994;7.126;2023-03-31T06:58:21;6.23;;;2.10;;
9117;SDS011;4594;50.994;7.126;2023-03-31T07:00:47;2.00;;;1.90;;
9117;SDS011;4594;50.994;7.126;2023-03-31T07:03:13;1.93;;;1.70;;
9117;SDS011;4594;50.994;7.126;2023-03-31T07:05:46;1.97;;;1.50;;
9117;SDS011;4594;50.994;7.126;2023-03-31T07:08:14;1.70;;;1.57;;
9117;SDS011;4594;50.994;7.126;2023-03-31T07:10:41;1.67;;;1.63;;
9117;SDS011;4594;50.994;7.126;2023-03-31T07:13:11;1.77;;;1.67;;
9117;SDS011;4594;50.994;7.126;2023-03-31T07:15:41;3.47;;;1.80;;
9117;SDS011;4594;50.994;7.126;2023-03-31T07:18:08;1.53;;;1.43;;
9117;SDS011;4594;50.994;7.126;2023-03-31T07:20:34;1.57;;;1.47;;
9117;SDS011;4594;50.994;7.126;2023-03-31T07:23:02;1.47;;;1.47;;
9117;SDS011;4594;50.994;7.126;2023-03-31T07:25:29;1.33;;;1.33;;
9117;SDS011;4594;50.994;7.126;2023-03-31T07:27:55;1.60;;;1.50;;
9117;SDS011;4594;50.994;7.126;2023-03-31T07:30:21;1.53;;;1.43;;
9117;SDS011;4594;50.994;7.126;2023-03-31T07:32:49;1.40;;;1.40;;
9117;SDS011;4594;50.994;7.126;2023-03-31T07:35:16;1.50;;;1.50;;
9117;SDS011;4594;50.994;7.126;2023-03-31T07:37:44;1.67;;;1.67;;
9117;SDS011;4594;50.994;7.126;2023-03-31T07:40:15;2.07;;;1.47;;
9117;SDS011;4594;50.994;7.126;2023-03-31T07:42:51;1.40;;;1.30;;
9117;SDS011;4594;50.994;7.126;2023-03-31T07:45:18;1.27;;;1.27;;
9117;SDS011;4594;50.994;7.126;2023-03-31T07:47:46;1.40;;;1.30;;
9117;SDS011;4594;50.994;7.126;2023-03-31T07:50:13;1.30;;;1.30;;
9117;SDS011;4594;50.994;7.126;2023-03-31T07:52:40;1.77;;;1.67;;
9117;SDS011;4594;50.994;7.126;2023-03-31T07:55:07;1.30;;;1.30;;
9117;SDS011;4594;50.994;7.126;2023-03-31T07:57:33;1.40;;;1.20;;
9117;SDS011;4594;50.994;7.126;2023-03-31T08:00:03;1.40;;;1.40;;
9117;SDS011;4594;50.994;7.126;2023-03-31T08:02:32;2.17;;;1.23;;
9117;SDS011;4594;50.994;7.126;2023-03-31T08:04:58;1.30;;;1.30;;
9117;SDS011;4594;50.994;7.126;2023-03-31T08:07:24;1.67;;;1.57;;
9117;SDS011;4594;50.994;7.126;2023-03-31T08:09:51;1.00;;;1.00;;
9117;SDS011;4594;50.994;7.126;2023-03-31T08:12:16;1.23;;;1.23;;
9117;SDS011;4594;50.994;7.126;2023-03-31T08:14:42;2.50;;;1.47;;
9117;SDS011;4594;50.994;7.126;2023-03-31T08:17:08;1.90;;;1.37;;
9117;SDS011;4594;50.994;7.126;2023-03-31T08:19:35;1.37;;;1.37;;
9117;SDS011;4594;50.994;7.126;2023-03-31T08:22:01;1.33;;;1.33;;
9117;SDS011;4594;50.994;7.126;2023-03-31T08:24:27;1.30;;;1.30;;
9117;SDS011;4594;50.994;7.126;2023-03-31T08:26:53;1.17;;;1.10;;
9117;SDS011;4594;50.994;7.126;2023-03-31T08:29:19;1.40;;;1.40;;
9117;SDS011;4594;50.994;7.126;2023-03-31T08:31:44;1.27;;;1.27;;
9117;SDS011;4594;50.994;7.126;2023-03-31T08:34:10;1.47;;;1.37;;
9117;SDS011;4594;50.994;7.126;2023-03-31T08:36:36;1.20;;;1.20;;
9117;SDS011;4594;50.994;7.126;2023-03-31T08:39:01;1.67;;;1.57;;
9117;SDS011;4594;50.994;7.126;2023-03-31T08:41:46;1.40;;;1.30;;
9117;SDS011;4594;50.994;7.126;2023-03-31T08:44:25;1.30;;;1.30;;
9117;SDS011;4594;50.994;7.126;2023-03-31T08:47:25;1.43;;;1.30;;
9117;SDS011;4594;50.994;7.126;2023-03-31T08:49:56;3.90;;;1.23;;
9117;SDS011;4594;50.994;7.126;2023-03-31T08:52:30;1.37;;;1.30;;
9117;SDS011;4594;50.994;7.126;2023-03-31T08:55:09;3.00;;;1.50;;
9117;SDS011;4594;50.994;7.126;2023-03-31T08:57:58;2.13;;;1.20;;
9117;SDS011;4594;50.994;7.126;2023-03-31T09:00:40;3.13;;;1.50;;
9117;SDS011;4594;50.994;7.126;2023-03-31T09:06:15;2.37;;;1.77;;
9117;SDS011;4594;50.994;7.126;2023-03-31T09:09:00;3.77;;;2.20;;
9117;SDS011;4594;50.994;7.126;2023-03-31T09:14:11;3.53;;;1.60;;
9117;SDS011;4594;50.994;7.126;2023-03-31T09:23:00;3.83;;;1.90;;
9117;SDS011;4594;50.994;7.126;2023-03-31T09:25:37;6.83;;;1.57;;
9117;SDS011;4594;50.994;7.126;2023-03-31T09:28:07;5.70;;;2.40;;
9117;SDS011;4594;50.994;7.126;2023-03-31T09:30:44;3.67;;;1.97;;
9117;SDS011;4594;50.994;7.126;2023-03-31T09:36:01;7.47;;;1.80;;
9117;SDS011;4594;50.994;7.126;2023-03-31T09:38:38;4.40;;;1.63;;
9117;SDS011;4594;50.994;7.126;2023-03-31T09:41:07;3.80;;;2.07;;
9117;SDS011;4594;50.994;7.126;2023-03-31T09:43:34;4.97;;;2.00;;
9117;SDS011;4594;50.994;7.126;2023-03-31T09:46:02;6.50;;;1.73;;
9117;SDS011;4594;50.994;7.126;2023-03-31T09:48:49;6.17;;;2.20;;
9117;SDS011;4594;50.994;7.126;2023-03-31T09:51:25;4.07;;;1.70;;
9117;SDS011;4594;50.994;7.126;2023-03-31T09:56:50;4.17;;;2.23;;
9117;SDS011;4594;50.994;7.126;2023-03-31T09:59:19;3.80;;;1.80;;
9117;SDS011;4594;50.994;7.126;2023-03-31T10:02:24;3.50;;;1.70;;
9117;SDS011;4594;50.994;7.126;2023-03-31T10:05:02;2.53;;;1.77;;
9117;SDS011;4594;50.994;7.126;2023-03-31T10:07:30;5.27;;;2.33;;
9117;SDS011;4594;50.994;7.126;2023-03-31T10:09:58;4.67;;;2.07;;
9117;SDS011;4594;50.994;7.126;2023-03-31T10:12:28;3.37;;;2.40;;
9117;SDS011;4594;50.994;7.126;2023-03-31T10:15:29;5.03;;;2.50;;
9117;SDS011;4594;50.994;7.126;2023-03-31T10:17:51;2.60;;;2.00;;
9117;SDS011;4594;50.994;7.126;2023-03-31T10:20:51;7.07;;;3.07;;
9117;SDS011;4594;50.994;7.126;2023-03-31T10:25:55;4.73;;;2.00;;
9117;SDS011;4594;50.994;7.126;2023-03-31T10:28:21;4.30;;;2.30;;
9117;SDS011;4594;50.994;7.126;2023-03-31T10:30:48;8.40;;;2.30;;
9117;SDS011;4594;50.994;7.126;2023-03-31T10:33:22;9.33;;;2.40;;
9117;SDS011;4594;50.994;7.126;2023-03-31T10:36:06;6.00;;;2.30;;
9117;SDS011;4594;50.994;7.126;2023-03-31T10:38:50;4.33;;;1.70;;
9117;SDS011;4594;50.994;7.126;2023-03-31T10:41:22;4.77;;;2.20;;
9117;SDS011;4594;50.994;7.126;2023-03-31T10:43:54;6.27;;;2.27;;
9117;SDS011;4594;50.994;7.126;2023-03-31T10:49:23;5.00;;;2.00;;
9117;SDS011;4594;50.994;7.126;2023-03-31T10:51:51;3.97;;;1.87;;
9117;SDS011;4594;50.994;7.126;2023-03-31T10:54:20;3.27;;;1.73;;
9117;SDS011;4594;50.994;7.126;2023-03-31T10:56:46;8.07;;;2.17;;
9117;SDS011;4594;50.994;7.126;2023-03-31T11:06:05;6.27;;;1.67;;
9117;SDS011;4594;50.994;7.126;2023-03-31T11:19:51;3.03;;;2.20;;
9117;SDS011;4594;50.994;7.126;2023-03-31T11:22:39;3.03;;;2.07;;
9117;SDS011;4594;50.994;7.126;2023-03-31T11:25:26;2.03;;;1.80;;
9117;SDS011;4594;50.994;7.126;2023-03-31T11:33:59;3.00;;;2.00;;
9117;SDS011;4594;50.994;7.126;2023-03-31T11:37:11;2.47;;;1.73;;
9117;SDS011;4594;50.994;7.126;2023-03-31T11:40:30;4.83;;;1.77;;
9117;SDS011;4594;50.994;7.126;2023-03-31T11:43:26;1.63;;;1.43;;
9117;SDS011;4594;50.994;7.126;2023-03-31T11:51:54;2.93;;;1.93;;
9117;SDS011;4594;50.994;7.126;2023-03-31T11:54:39;2.13;;;1.90;;
9117;SDS011;4594;50.994;7.126;2023-03-31T11:57:27;5.40;;;2.13;;
9117;SDS011;4594;50.994;7.126;2023-03-31T12:00:10;8.37;;;3.27;;
9117;SDS011;4594;50.994;7.126;2023-03-31T12:03:15;7.17;;;3.33;;
9117;SDS011;4594;50.994;7.126;2023-03-31T12:06:02;5.07;;;2.93;;
9117;SDS011;4594;50.994;7.126;2023-03-31T12:08:49;3.67;;;2.67;;
9117;SDS011;4594;50.994;7.126;2023-03-31T12:11:33;6.60;;;2.67;;
9117;SDS011;4594;50.994;7.126;2023-03-31T12:17:10;7.50;;;2.57;;
9117;SDS011;4594;50.994;7.126;2023-03-31T12:24:45;4.80;;;2.50;;
9117;SDS011;4594;50.994;7.126;2023-03-31T12:29:47;4.83;;;2.70;;
9117;SDS011;4594;50.994;7.126;2023-03-31T12:32:19;2.50;;;2.10;;
9117;SDS011;4594;50.994;7.126;2023-03-31T12:34:54;4.33;;;2.53;;
9117;SDS011;4594;50.994;7.126;2023-03-31T12:56:13;9.03;;;2.53;;
9117;SDS011;4594;50.994;7.126;2023-03-31T12:58:42;4.93;;;2.23;;
9117;SDS011;4594;50.994;7.126;2023-03-31T13:08:51;4.20;;;2.00;;
9117;SDS011;4594;50.994;7.126;2023-03-31T13:17:21;3.50;;;1.77;;
9117;SDS011;4594;50.994;7.126;2023-03-31T13:23:33;2.63;;;1.60;;
9117;SDS011;4594;50.994;7.126;2023-03-31T13:26:01;5.90;;;2.10;;
9117;SDS011;4594;50.994;7.126;2023-03-31T13:28:31;4.73;;;2.07;;
9117;SDS011;4594;50.994;7.126;2023-03-31T13:51:08;11.07;;;4.63;;
9117;SDS011;4594;50.994;7.126;2023-03-31T13:56:54;6.70;;;3.70;;
9117;SDS011;4594;50.994;7.126;2023-03-31T14:02:52;4.50;;;3.00;;
9117;SDS011;4594;50.994;7.126;2023-03-31T14:05:44;7.27;;;3.07;;
9117;SDS011;4594;50.994;7.126;2023-03-31T14:08:18;6.47;;;2.50;;
9117;SDS011;4594;50.994;7.126;2023-03-31T14:11:22;3.37;;;2.23;;
9117;SDS011;4594;50.994;7.126;2023-03-31T14:14:11;4.37;;;2.00;;
9117;SDS011;4594;50.994;7.126;2023-03-31T14:25:15;3.07;;;1.97;;
9117;SDS011;4594;50.994;7.126;2023-03-31T14:30:49;5.37;;;2.70;;
9117;SDS011;4594;50.994;7.126;2023-03-31T14:39:23;5.63;;;2.20;;
9117;SDS011;4594;50.994;7.126;2023-03-31T14:41:58;6.10;;;2.47;;
9117;SDS011;4594;50.994;7.126;2023-03-31T14:44:29;4.50;;;1.97;;
9117;SDS011;4594;50.994;7.126;2023-03-31T14:46:58;2.13;;;1.90;;
9117;SDS011;4594;50.994;7.126;2023-03-31T14:49:25;6.00;;;3.13;;
9117;SDS011;4594;50.994;7.126;2023-03-31T14:52:03;7.07;;;3.30;;
9117;SDS011;4594;50.994;7.126;2023-03-31T14:54:43;3.50;;;2.90;;
9117;SDS011;4594;50.994;7.126;2023-03-31T14:57:12;3.40;;;2.10;;
9117;SDS011;4594;50.994;7.126;2023-03-31T14:59:54;3.03;;;1.77;;
9117;SDS011;4594;50.994;7.126;2023-03-31T15:02:54;2.27;;;1.83;;
9117;SDS011;4594;50.994;7.126;2023-03-31T15:05:21;2.33;;;1.93;;
9117;SDS011;4594;50.994;7.126;2023-03-31T15:07:57;1.60;;;1.50;;
9117;SDS011;4594;50.994;7.126;2023-03-31T15:10:30;2.40;;;2.20;;
9117;SDS011;4594;50.994;7.126;2023-03-31T15:13:08;4.93;;;2.77;;
9117;SDS011;4594;50.994;7.126;2023-03-31T15:15:47;6.20;;;3.90;;
9117;SDS011;4594;50.994;7.126;2023-03-31T15:18:16;3.87;;;3.23;;
9117;SDS011;4594;50.994;7.126;2023-03-31T15:20:42;4.10;;;3.30;;
9117;SDS011;4594;50.994;7.126;2023-03-31T15:23:43;5.37;;;3.33;;
9117;SDS011;4594;50.994;7.126;2023-03-31T15:26:05;6.90;;;3.80;;
9117;SDS011;4594;50.994;7.126;2023-03-31T15:28:40;4.27;;;3.40;;
9117;SDS011;4594;50.994;7.126;2023-03-31T15:31:16;7.20;;;3.40;;
9117;SDS011;4594;50.994;7.126;2023-03-31T15:33:42;5.53;;;3.70;;
9117;SDS011;4594;50.994;7.126;2023-03-31T15:36:10;5.83;;;3.77;;
9117;SDS011;4594;50.994;7.126;2023-03-31T15:38:37;4.90;;;3.50;;
9117;SDS011;4594;50.994;7.126;2023-03-31T15:41:09;2.67;;;2.10;;
9117;SDS011;4594;50.994;7.126;2023-03-31T15:46:24;4.53;;;2.57;;
9117;SDS011;4594;50.994;7.126;2023-03-31T15:49:01;3.87;;;1.90;;
9117;SDS011;4594;50.994;7.126;2023-03-31T15:51:29;2.40;;;1.70;;
9117;SDS011;4594;50.994;7.126;2023-03-31T15:54:00;4.97;;;2.20;;
9117;SDS011;4594;50.994;7.126;2023-03-31T15:56:30;2.40;;;1.80;;
9117;SDS011;4594;50.994;7.126;2023-03-31T15:59:20;5.43;;;1.87;;
9117;SDS011;4594;50.994;7.126;2023-03-31T16:01:48;1.80;;;1.70;;
9117;SDS011;4594;50.994;7.126;2023-03-31T16:04:16;3.00;;;2.00;;
9117;SDS011;4594;50.994;7.126;2023-03-31T16:06:43;2.63;;;1.87;;
9117;SDS011;4594;50.994;7.126;2023-03-31T16:11:53;3.40;;;1.83;;
9117;SDS011;4594;50.994;7.126;2023-03-31T16:14:36;4.60;;;1.90;;
9117;SDS011;4594;50.994;7.126;2023-03-31T16:17:19;2.50;;;1.90;;
9117;SDS011;4594;50.994;7.126;2023-03-31T16:19:55;3.20;;;2.13;;
9117;SDS011;4594;50.994;7.126;2023-03-31T16:22:34;2.13;;;1.63;;
9117;SDS011;4594;50.994;7.126;2023-03-31T16:25:10;2.50;;;1.67;;
9117;SDS011;4594;50.994;7.126;2023-03-31T16:27:44;2.70;;;2.07;;
9117;SDS011;4594;50.994;7.126;2023-03-31T16:30:16;2.43;;;1.90;;
9117;SDS011;4594;50.994;7.126;2023-03-31T16:32:59;1.93;;;1.80;;
9117;SDS011;4594;50.994;7.126;2023-03-31T16:35:36;2.77;;;1.80;;
9117;SDS011;4594;50.994;7.126;2023-03-31T16:38:08;2.20;;;1.90;;
9117;SDS011;4594;50.994;7.126;2023-03-31T16:40:40;1.93;;;1.77;;
9117;SDS011;4594;50.994;7.126;2023-03-31T16:43:13;4.30;;;1.90;;
9117;SDS011;4594;50.994;7.126;2023-03-31T16:45:56;1.47;;;1.37;;
9117;SDS011;4594;50.994;7.126;2023-03-31T16:48:25;2.13;;;1.43;;
9117;SDS011;4594;50.994;7.126;2023-03-31T16:50:54;2.50;;;1.83;;
9117;SDS011;4594;50.994;7.126;2023-03-31T16:53:24;3.20;;;1.67;;
9117;SDS011;4594;50.994;7.126;2023-03-31T16:55:53;2.20;;;2.00;;
9117;SDS011;4594;50.994;7.126;2023-03-31T16:58:20;2.33;;;2.13;;
9117;SDS011;4594;50.994;7.126;2023-03-31T17:00:48;2.27;;;1.83;;
9117;SDS011;4594;50.994;7.126;2023-03-31T17:03:14;2.20;;;2.10;;
9117;SDS011;4594;50.994;7.126;2023-03-31T17:05:41;1.90;;;1.80;;
9117;SDS011;4594;50.994;7.126;2023-03-31T17:08:10;5.93;;;3.27;;
9117;SDS011;4594;50.994;7.126;2023-03-31T17:10:37;8.67;;;4.27;;
9117;SDS011;4594;50.994;7.126;2023-03-31T17:13:05;7.97;;;4.50;;
9117;SDS011;4594;50.994;7.126;2023-03-31T17:15:32;11.23;;;6.53;;
9117;SDS011;4594;50.994;7.126;2023-03-31T17:18:00;18.00;;;9.97;;
9117;SDS011;4594;50.994;7.126;2023-03-31T17:20:27;16.03;;;8.87;;
9117;SDS011;4594;50.994;7.126;2023-03-31T17:22:54;19.97;;;9.57;;
9117;SDS011;4594;50.994;7.126;2023-03-31T17:25:20;9.60;;;5.53;;
9117;SDS011;4594;50.994;7.126;2023-03-31T17:27:46;6.40;;;3.77;;
9117;SDS011;4594;50.994;7.126;2023-03-31T17:30:12;5.90;;;4.33;;
9117;SDS011;4594;50.994;7.126;2023-03-31T17:32:38;9.77;;;5.20;;
9117;SDS011;4594;50.994;7.126;2023-03-31T17:35:05;15.07;;;8.10;;
9117;SDS011;4594;50.994;7.126;2023-03-31T17:37:32;10.87;;;6.60;;
9117;SDS011;4594;50.994;7.126;2023-03-31T17:39:58;7.97;;;4.60;;
9117;SDS011;4594;50.994;7.126;2023-03-31T17:42:24;4.70;;;3.20;;
9117;SDS011;4594;50.994;7.126;2023-03-31T17:44:50;4.70;;;2.77;;
9117;SDS011;4594;50.994;7.126;2023-03-31T17:47:17;2.40;;;2.17;;
9117;SDS011;4594;50.994;7.126;2023-03-31T17:49:44;3.53;;;2.73;;
9117;SDS011;4594;50.994;7.126;2023-03-31T17:52:10;3.13;;;2.40;;
9117;SDS011;4594;50.994;7.126;2023-03-31T17:54:37;6.93;;;4.20;;
9117;SDS011;4594;50.994;7.126;2023-03-31T17:57:04;3.60;;;2.57;;
9117;SDS011;4594;50.994;7.126;2023-03-31T17:59:30;5.50;;;3.07;;
9117;SDS011;4594;50.994;7.126;2023-03-31T18:01:56;11.20;;;4.67;;
9117;SDS011;4594;50.994;7.126;2023-03-31T18:04:22;4.47;;;2.77;;
9117;SDS011;4594;50.994;7.126;2023-03-31T18:06:48;2.77;;;2.27;;
9117;SDS011;4594;50.994;7.126;2023-03-31T18:09:14;5.67;;;2.83;;
9117;SDS011;4594;50.994;7.126;2023-03-31T18:11:40;2.03;;;1.80;;
9117;SDS011;4594;50.994;7.126;2023-03-31T18:14:06;1.80;;;1.70;;
9117;SDS011;4594;50.994;7.126;2023-03-31T18:16:32;4.40;;;2.17;;
9117;SDS011;4594;50.994;7.126;2023-03-31T18:18:59;3.43;;;1.97;;
9117;SDS011;4594;50.994;7.126;2023-03-31T18:21:25;5.87;;;1.93;;
9117;SDS011;4594;50.994;7.126;2023-03-31T18:23:52;3.07;;;2.07;;
9117;SDS011;4594;50.994;7.126;2023-03-31T18:26:19;2.63;;;2.17;;
9117;SDS011;4594;50.994;7.126;2023-03-31T18:28:51;1.93;;;1.80;;
9117;SDS011;4594;50.994;7.126;2023-03-31T18:31:17;2.23;;;2.03;;
9117;SDS011;4594;50.994;7.126;2023-03-31T18:33:45;1.83;;;1.73;;
9117;SDS011;4594;50.994;7.126;2023-03-31T18:36:17;2.30;;;1.67;;
9117;SDS011;4594;50.994;7.126;2023-03-31T18:38:45;2.50;;;1.90;;
9117;SDS011;4594;50.994;7.126;2023-03-31T18:41:12;2.17;;;1.80;;
9117;SDS011;4594;50.994;7.126;2023-03-31T18:43:39;2.23;;;1.80;;
9117;SDS011;4594;50.994;7.126;2023-03-31T18:46:05;2.47;;;1.60;;
9117;SDS011;4594;50.994;7.126;2023-03-31T18:48:31;1.93;;;1.83;;
9117;SDS011;4594;50.994;7.126;2023-03-31T18:50:56;3.90;;;1.73;;
9117;SDS011;4594;50.994;7.126;2023-03-31T18:53:22;3.07;;;2.23;;